createdAt,value
2018-08-28T00:00:08.508Z,75.39
2018-08-28T00:02:37.957Z,75.19
2018-08-28T00:05:07.474Z,75.71
2018-08-28T00:07:37.438Z,74.84
2018-08-28T00:10:07.483Z,75.49
2018-08-28T00:12:36.969Z,75.92
2018-08-28T00:15:06.614Z,75.75
2018-08-28T00:17:36.240Z,76.83
2018-08-28T00:20:06.319Z,77.11
2018-08-28T00:22:35.832Z,76.71
2018-08-28T00:25:05.722Z,77.34
2018-08-28T00:27:35.217Z,77.60
2018-08-28T00:30:04.883Z,77.37
2018-08-28T00:32:34.666Z,77.10
2018-08-28T00:35:04.190Z,77.00
2018-08-28T00:37:34.099Z,77.37
2018-08-28T00:40:04.204Z,77.14
2018-08-28T00:42:33.892Z,77.49
2018-08-28T00:45:04.015Z,77.94
2018-08-28T00:47:33.507Z,78.28
2018-08-28T00:50:03.079Z,78.33
2018-08-28T00:52:33.129Z,78.19
2018-08-28T00:55:03.320Z,78.66
2018-08-28T00:57:33.432Z,78.66
2018-08-28T01:00:02.880Z,78.58
2018-08-28T01:02:32.579Z,79.02
2018-08-28T01:05:02.122Z,78.89
2018-08-28T01:07:31.583Z,79.58
2018-08-28T01:10:01.191Z,80.15
2018-08-28T01:12:30.675Z,80.08
2018-08-28T01:15:00.128Z,80.14
2018-08-28T01:17:30.442Z,80.83
2018-08-28T01:20:00.303Z,80.71
2018-08-28T01:22:29.635Z,80.74
2018-08-28T01:24:59.160Z,80.61
2018-08-28T01:27:29.186Z,80.82
2018-08-28T01:29:59.183Z,80.77
2018-08-28T01:32:29.530Z,80.65
2018-08-28T01:34:59.837Z,80.93
2018-08-28T01:37:29.966Z,81.22
2018-08-28T01:39:59.866Z,81.43
2018-08-28T01:42:29.379Z,82.82
2018-08-28T01:44:59.526Z,82.73
2018-08-28T01:47:29.047Z,83.67
2018-08-28T01:49:58.484Z,83.59
2018-08-28T01:52:28.246Z,83.12
2018-08-28T01:54:58.266Z,82.57
2018-08-28T01:57:27.638Z,83.59
2018-08-28T01:59:57.350Z,82.60
2018-08-28T02:02:27.213Z,83.83
2018-08-28T02:04:56.791Z,83.87
2018-08-28T02:07:26.470Z,83.77
2018-08-28T02:09:55.956Z,84.40
2018-08-28T02:12:25.501Z,84.83
2018-08-28T02:14:54.984Z,85.12
2018-08-28T02:17:24.479Z,84.92
2018-08-28T02:19:54.101Z,85.69
2018-08-28T02:22:23.962Z,85.99
2018-08-28T02:24:54.196Z,86.24
2018-08-28T02:27:23.502Z,86.00
2018-08-28T02:29:53.267Z,86.28
2018-08-28T02:32:22.983Z,86.48
2018-08-28T02:34:52.923Z,86.61
2018-08-28T02:37:22.795Z,86.83
2018-08-28T02:39:52.309Z,87.38
2018-08-28T02:42:22.301Z,87.40
2018-08-28T02:44:52.383Z,88.91
2018-08-28T02:47:22.626Z,89.60
2018-08-28T02:49:52.176Z,90.23
2018-08-28T02:52:21.661Z,90.80
2018-08-28T02:54:51.548Z,91.81
2018-08-28T02:57:21.066Z,91.79
2018-08-28T02:59:50.735Z,92.52
2018-08-28T03:02:20.519Z,92.42
2018-08-28T03:04:50.381Z,91.64
2018-08-28T03:07:19.930Z,92.29
2018-08-28T03:09:49.454Z,93.07
2018-08-28T03:12:19.107Z,93.62
2018-08-28T03:14:48.824Z,94.13
2018-08-28T03:17:18.920Z,94.19
2018-08-28T03:19:48.939Z,93.87
2018-08-28T03:22:18.614Z,94.39
2018-08-28T03:24:48.504Z,94.35
2018-08-28T03:27:18.018Z,94.50
2018-08-28T03:29:47.948Z,95.14
2018-08-28T03:32:18.549Z,95.67
2018-08-28T03:34:47.927Z,95.90
2018-08-28T03:37:17.637Z,96.00
2018-08-28T03:39:47.163Z,95.41
2018-08-28T03:42:17.568Z,95.44
2018-08-28T03:44:47.101Z,95.43
2018-08-28T03:47:16.886Z,95.37
2018-08-28T03:49:52.768Z,95.42
2018-08-28T03:52:22.276Z,95.60
2018-08-28T03:54:52.114Z,96.16
2018-08-28T03:57:22.162Z,96.43
2018-08-28T03:59:51.793Z,96.44
2018-08-28T04:02:21.530Z,96.68
2018-08-28T04:04:50.794Z,97.45
2018-08-28T04:07:20.747Z,97.14
2018-08-28T04:09:50.648Z,97.41
2018-08-28T04:12:21.025Z,97.68
2018-08-28T04:14:50.488Z,98.22
2018-08-28T04:17:20.433Z,98.21
2018-08-28T04:19:50.203Z,98.43
2018-08-28T04:22:19.591Z,98.47
2018-08-28T04:24:49.843Z,98.50
2018-08-28T04:27:19.649Z,99.20
2018-08-28T04:29:49.418Z,98.82
2018-08-28T04:32:19.404Z,99.17
2018-08-28T04:34:48.774Z,98.36
2018-08-28T04:37:18.860Z,99.23
2018-08-28T04:39:49.092Z,100.00
2018-08-28T04:42:18.519Z,99.68
2018-08-28T04:44:48.426Z,99.70
2018-08-28T04:47:19.101Z,99.47
2018-08-28T04:49:48.894Z,99.96
2018-08-28T04:52:18.366Z,99.73
2018-08-28T04:54:48.615Z,99.55
2018-08-28T04:57:19.042Z,100.00
2018-08-28T04:59:48.354Z,100.00
2018-08-28T05:02:17.858Z,99.59
2018-08-28T05:04:48.330Z,99.80
2018-08-28T05:07:17.866Z,99.59
2018-08-28T05:09:47.831Z,99.46
2018-08-28T05:12:17.271Z,99.70
2018-08-28T05:14:47.012Z,99.34
2018-08-28T05:17:16.527Z,98.71
2018-08-28T05:19:46.274Z,98.39
2018-08-28T05:22:16.758Z,97.91
2018-08-28T05:24:46.420Z,97.87
2018-08-28T05:27:15.963Z,97.93
2018-08-28T05:29:45.507Z,98.76
2018-08-28T05:32:15.428Z,99.21
2018-08-28T05:34:45.592Z,98.67
2018-08-28T05:37:15.650Z,98.75
2018-08-28T05:39:45.599Z,98.61
2018-08-28T05:42:15.083Z,98.01
2018-08-28T05:44:45.315Z,98.05
2018-08-28T05:47:15.675Z,97.58
2018-08-28T05:49:45.465Z,97.24
2018-08-28T05:52:15.102Z,96.89
2018-08-28T05:54:45.268Z,97.19
2018-08-28T05:57:14.607Z,96.23
2018-08-28T05:59:44.213Z,95.30
2018-08-28T06:02:14.062Z,95.32
2018-08-28T06:04:44.054Z,94.36
2018-08-28T06:07:13.588Z,94.26
2018-08-28T06:09:43.256Z,94.09
2018-08-28T06:12:12.782Z,94.11
2018-08-28T06:14:42.941Z,95.09
2018-08-28T06:17:12.415Z,94.37
2018-08-28T06:19:42.430Z,94.13
2018-08-28T06:22:12.406Z,92.90
2018-08-28T06:24:41.928Z,91.80
2018-08-28T06:27:11.443Z,91.18
2018-08-28T06:29:41.570Z,91.39
2018-08-28T06:32:11.078Z,91.40
2018-08-28T06:34:40.603Z,90.52
2018-08-28T06:37:10.276Z,90.87
2018-08-28T06:39:40.630Z,90.71
2018-08-28T06:42:10.318Z,89.82
2018-08-28T06:44:39.827Z,89.82
2018-08-28T06:47:09.344Z,90.07
2018-08-28T06:49:39.000Z,89.54
2018-08-28T06:52:08.375Z,89.20
2018-08-28T06:54:38.496Z,89.39
2018-08-28T06:57:08.250Z,88.43
2018-08-28T06:59:37.737Z,87.24
2018-08-28T07:02:08.212Z,87.56
2018-08-28T07:04:37.960Z,87.12
2018-08-28T07:07:07.766Z,86.83
2018-08-28T07:09:37.847Z,85.87
2018-08-28T07:12:07.931Z,86.21
2018-08-28T07:14:38.172Z,86.24
2018-08-28T07:17:08.163Z,85.72
2018-08-28T07:19:37.594Z,85.07
2018-08-28T07:22:07.736Z,84.66
2018-08-28T07:24:37.440Z,84.61
2018-08-28T07:27:07.126Z,84.00
2018-08-28T07:29:37.330Z,84.54
2018-08-28T07:32:07.396Z,83.77
2018-08-28T07:34:37.307Z,83.97
2018-08-28T07:37:06.827Z,81.93
2018-08-28T07:39:37.056Z,81.77
2018-08-28T07:42:08.400Z,81.64
2018-08-28T07:44:38.409Z,83.04
2018-08-28T07:47:08.922Z,82.36
2018-08-28T07:49:39.063Z,78.77
2018-08-28T07:52:08.756Z,75.75
2018-08-28T07:54:38.500Z,74.13
2018-08-28T07:57:08.375Z,76.43
2018-08-28T07:59:38.007Z,76.11
2018-08-28T08:02:07.557Z,79.90
2018-08-28T08:04:37.491Z,78.77
2018-08-28T08:07:07.643Z,78.19
2018-08-28T08:09:37.894Z,77.13
2018-08-28T08:12:07.279Z,72.81
2018-08-28T08:14:37.304Z,71.53
2018-08-28T08:17:06.748Z,68.82
2018-08-28T08:19:36.183Z,65.48
2018-08-28T08:22:05.899Z,64.34
2018-08-28T08:24:36.427Z,66.78
2018-08-28T08:27:06.120Z,65.74
2018-08-28T08:29:36.058Z,68.15
2018-08-28T08:32:05.526Z,63.04
2018-08-28T08:34:35.083Z,54.84
2018-08-28T08:37:04.981Z,50.58
2018-08-28T08:39:34.256Z,46.68
2018-08-28T08:42:04.410Z,52.71
2018-08-28T08:44:34.098Z,50.62
2018-08-28T08:47:03.635Z,49.29
2018-08-28T08:49:33.531Z,50.28
2018-08-28T08:52:03.059Z,58.27
2018-08-28T08:54:32.914Z,66.04
2018-08-28T08:57:03.494Z,67.55
2018-08-28T08:59:33.799Z,71.57
2018-08-28T09:02:03.328Z,74.28
2018-08-28T09:04:33.178Z,75.19
2018-08-28T09:07:02.439Z,74.84
2018-08-28T09:09:32.230Z,72.55
2018-08-28T09:12:01.523Z,69.46
2018-08-28T09:14:31.220Z,69.08
2018-08-28T09:17:01.440Z,68.61
2018-08-28T09:19:31.287Z,68.30
2018-08-28T09:22:01.039Z,67.64
2018-08-28T09:24:30.260Z,67.87
2018-08-28T09:27:01.154Z,68.53
2018-08-28T09:29:30.804Z,69.18
2018-08-28T09:32:00.721Z,67.65
2018-08-28T09:34:30.130Z,66.65
2018-08-28T09:36:59.594Z,66.14
2018-08-28T09:39:29.123Z,65.54
2018-08-28T09:41:58.865Z,63.10
2018-08-28T09:44:28.831Z,62.20
2018-08-28T09:46:58.524Z,62.50
2018-08-28T09:49:28.824Z,62.23
2018-08-28T09:51:58.511Z,61.43
2018-08-28T09:54:27.978Z,61.37
2018-08-28T09:56:57.517Z,60.97
2018-08-28T09:59:27.015Z,60.96
2018-08-28T10:01:57.167Z,60.85
2018-08-28T10:04:27.239Z,61.01
2018-08-28T10:06:56.967Z,60.07
2018-08-28T10:09:26.637Z,57.31
2018-08-28T10:11:55.954Z,57.24
2018-08-28T10:14:25.937Z,54.69
2018-08-28T10:16:55.554Z,50.59
2018-08-28T10:19:25.111Z,47.31
2018-08-28T10:21:54.776Z,44.10
2018-08-28T10:24:24.103Z,42.49
2018-08-28T10:26:53.594Z,42.75
2018-08-28T10:29:23.121Z,41.34
2018-08-28T10:31:52.832Z,41.50
2018-08-28T10:34:22.635Z,41.00
2018-08-28T10:36:53.256Z,46.98
2018-08-28T10:39:23.132Z,44.47
2018-08-28T10:41:54.598Z,44.33
2018-08-28T10:44:23.844Z,45.12
2018-08-28T10:46:53.904Z,49.18
2018-08-28T10:49:23.270Z,46.94
2018-08-28T10:51:53.300Z,46.24
2018-08-28T10:54:23.235Z,45.55
2018-08-28T10:56:53.506Z,46.31
2018-08-28T10:59:22.889Z,46.40
2018-08-28T11:01:53.238Z,47.79
2018-08-28T11:04:22.499Z,47.10
2018-08-28T11:06:52.238Z,44.75
2018-08-28T11:09:21.797Z,43.50
2018-08-28T11:11:51.841Z,44.48
2018-08-28T11:14:22.183Z,46.74
2018-08-28T11:16:51.723Z,46.16
2018-08-28T11:19:21.613Z,46.83
2018-08-28T11:21:51.332Z,45.08
2018-08-28T11:24:20.870Z,44.70
2018-08-28T11:26:50.567Z,42.51
2018-08-28T11:29:20.479Z,45.72
2018-08-28T11:31:49.765Z,42.88
2018-08-28T11:34:20.287Z,39.97
2018-08-28T11:36:49.815Z,39.34
2018-08-28T11:39:19.632Z,41.09
2018-08-28T11:41:48.978Z,37.42
2018-08-28T11:44:18.567Z,39.37
2018-08-28T11:46:47.981Z,37.18
2018-08-28T11:49:17.999Z,41.31
2018-08-28T11:51:47.469Z,43.70
2018-08-28T11:54:17.406Z,43.80
2018-08-28T11:56:46.842Z,40.54
2018-08-28T11:59:16.627Z,38.98
2018-08-28T12:01:46.042Z,38.56
2018-08-28T12:04:15.601Z,38.05
2018-08-28T12:06:45.907Z,37.10
2018-08-28T12:09:15.727Z,37.67
2018-08-28T12:11:44.987Z,37.63
2018-08-28T12:14:14.830Z,37.87
2018-08-28T12:16:44.497Z,42.37
2018-08-28T12:19:14.503Z,40.38
2018-08-28T12:21:43.923Z,45.50
2018-08-28T12:24:14.242Z,43.25
2018-08-28T12:26:44.624Z,42.83
2018-08-28T12:29:14.079Z,44.69
2018-08-28T12:31:43.587Z,46.33
2018-08-28T12:34:13.135Z,48.15
2018-08-28T12:36:42.831Z,47.17
2018-08-28T12:39:12.546Z,46.53
2018-08-28T12:41:42.407Z,46.58
2018-08-28T12:44:12.009Z,44.30
2018-08-28T12:46:41.474Z,43.80
2018-08-28T12:49:16.135Z,43.85
2018-08-28T12:51:46.210Z,42.94
2018-08-28T12:54:16.030Z,43.72
2018-08-28T12:56:45.800Z,43.01
2018-08-28T12:59:15.801Z,41.74
2018-08-28T13:01:45.241Z,42.81
2018-08-28T13:04:15.054Z,41.81
2018-08-28T13:06:45.505Z,41.60
2018-08-28T13:09:15.377Z,40.78
2018-08-28T13:11:44.899Z,42.04
2018-08-28T13:14:14.244Z,41.50
2018-08-28T13:16:44.063Z,41.78
2018-08-28T13:19:13.407Z,42.01
2018-08-28T13:21:42.925Z,42.45
2018-08-28T13:24:13.049Z,41.62
2018-08-28T13:26:42.757Z,42.13
2018-08-28T13:29:12.486Z,41.22
2018-08-28T13:31:42.575Z,42.28
2018-08-28T13:34:12.069Z,42.14
2018-08-28T13:36:42.076Z,40.93
2018-08-28T13:39:12.231Z,41.58
2018-08-28T13:41:42.294Z,40.82
2018-08-28T13:44:12.593Z,41.07
2018-08-28T13:46:41.855Z,40.79
2018-08-28T13:49:11.531Z,40.64
2018-08-28T13:51:41.331Z,40.46
2018-08-28T13:54:11.420Z,42.14
2018-08-28T13:56:40.728Z,43.77
2018-08-28T13:59:10.800Z,42.95
2018-08-28T14:01:40.529Z,42.33
2018-08-28T14:04:10.350Z,43.00
2018-08-28T14:06:39.754Z,42.25
2018-08-28T14:09:09.895Z,41.24
2018-08-28T14:11:39.974Z,41.96
2018-08-28T14:14:09.911Z,41.23
2018-08-28T14:16:39.399Z,42.19
2018-08-28T14:19:09.755Z,43.00
2018-08-28T14:21:39.919Z,43.33
2018-08-28T14:24:09.575Z,43.25
2018-08-28T14:26:39.161Z,42.84
2018-08-28T14:29:08.559Z,42.08
2018-08-28T14:31:38.526Z,42.57
2018-08-28T14:34:07.863Z,42.54
2018-08-28T14:36:37.861Z,42.37
2018-08-28T14:39:08.042Z,43.03
2018-08-28T14:41:38.580Z,42.30
2018-08-28T14:44:09.723Z,42.53
2018-08-28T14:46:39.369Z,42.40
2018-08-28T14:49:09.050Z,41.91
2018-08-28T14:51:38.425Z,44.63
2018-08-28T14:54:08.331Z,43.44
2018-08-28T14:56:38.639Z,42.78
2018-08-28T14:59:07.851Z,42.68
2018-08-28T15:01:37.708Z,44.10
2018-08-28T15:04:07.152Z,43.72
2018-08-28T15:06:37.074Z,43.37
2018-08-28T15:09:08.191Z,44.12
2018-08-28T15:11:37.963Z,43.28
2018-08-28T15:14:07.458Z,43.45
2018-08-28T15:16:37.228Z,43.34
2018-08-28T15:19:06.721Z,43.69
2018-08-28T15:21:36.361Z,42.92
2018-08-28T15:24:05.879Z,42.17
2018-08-28T15:26:35.180Z,42.49
2018-08-28T15:29:04.482Z,43.22
2018-08-28T15:31:34.175Z,43.53
2018-08-28T15:34:04.326Z,43.79
2018-08-28T15:36:33.818Z,44.14
2018-08-28T15:39:03.490Z,45.51
2018-08-28T15:41:33.272Z,43.62
2018-08-28T15:44:03.359Z,43.82
2018-08-28T15:46:33.097Z,44.00
2018-08-28T15:49:02.935Z,43.47
2018-08-28T15:51:32.388Z,43.87
2018-08-28T15:54:02.239Z,43.77
2018-08-28T15:56:31.670Z,44.24
2018-08-28T15:59:01.192Z,43.47
2018-08-28T16:01:30.716Z,44.00
2018-08-28T16:04:00.221Z,45.13
2018-08-28T16:06:29.760Z,44.51
2018-08-28T16:08:59.814Z,44.98
2018-08-28T16:11:29.700Z,44.34
2018-08-28T16:13:59.223Z,44.04
2018-08-28T16:16:29.119Z,44.19
2018-08-28T16:18:59.019Z,44.85
2018-08-28T16:21:32.530Z,44.62
2018-08-28T16:24:01.991Z,45.16
2018-08-28T16:26:31.491Z,44.94
2018-08-28T16:29:01.527Z,45.11
2018-08-28T16:31:31.314Z,44.46
2018-08-28T16:34:01.260Z,44.78
2018-08-28T16:36:31.557Z,45.64
2018-08-28T16:39:01.926Z,45.36
2018-08-28T16:41:31.807Z,45.77
2018-08-28T16:44:01.351Z,46.38
2018-08-28T16:46:30.811Z,45.98
2018-08-28T16:49:00.084Z,45.88
2018-08-28T16:51:30.219Z,45.54
2018-08-28T16:53:59.719Z,46.07
2018-08-28T16:56:29.201Z,46.88
2018-08-28T16:58:58.786Z,46.81
2018-08-28T17:01:28.126Z,46.46
2018-08-28T17:03:57.336Z,46.72
2018-08-28T17:06:27.007Z,46.68
2018-08-28T17:08:57.005Z,47.06
2018-08-28T17:11:26.250Z,48.00
2018-08-28T17:13:55.574Z,47.84
2018-08-28T17:16:25.062Z,47.46
2018-08-28T17:18:54.739Z,47.92
2018-08-28T17:21:25.054Z,47.93
2018-08-28T17:23:54.559Z,47.83
2018-08-28T17:26:24.283Z,48.84
2018-08-28T17:28:53.780Z,48.34
2018-08-28T17:31:23.506Z,48.94
2018-08-28T17:33:53.426Z,49.40
2018-08-28T17:36:23.159Z,49.98
2018-08-28T17:38:52.625Z,49.26
2018-08-28T17:41:22.458Z,51.25
2018-08-28T17:43:52.074Z,50.66
2018-08-28T17:46:21.988Z,50.69
2018-08-28T17:48:51.566Z,50.68
2018-08-28T17:51:21.184Z,50.36
2018-08-28T17:53:50.700Z,50.97
2018-08-28T17:56:20.967Z,51.41
2018-08-28T17:58:50.544Z,51.25
2018-08-28T18:01:20.230Z,51.15
2018-08-28T18:03:49.551Z,51.59
2018-08-28T18:06:19.858Z,51.55
2018-08-28T18:08:52.327Z,51.26
2018-08-28T18:11:22.174Z,52.01
2018-08-28T18:13:52.070Z,51.60
2018-08-28T18:16:21.624Z,52.61
2018-08-28T18:18:51.482Z,51.77
2018-08-28T18:21:21.011Z,52.34
2018-08-28T18:23:50.232Z,52.78
2018-08-28T18:26:19.950Z,52.98
2018-08-28T18:28:49.515Z,53.10
2018-08-28T18:31:18.994Z,54.13
2018-08-28T18:33:48.543Z,53.69
2018-08-28T18:36:18.216Z,54.50
2018-08-28T18:38:49.512Z,54.93
2018-08-28T18:41:18.866Z,55.28
2018-08-28T18:43:48.595Z,55.83
2018-08-28T18:46:18.075Z,55.33
2018-08-28T18:48:47.599Z,56.11
2018-08-28T18:51:16.956Z,55.47
2018-08-28T18:53:46.436Z,55.55
2018-08-28T18:56:16.297Z,56.16
2018-08-28T18:58:45.620Z,56.50
2018-08-28T19:01:15.198Z,56.24
2018-08-28T19:03:44.982Z,56.74
2018-08-28T19:06:14.765Z,56.41
2018-08-28T19:08:45.468Z,57.02
2018-08-28T19:11:15.032Z,57.10
2018-08-28T19:13:45.045Z,57.31
2018-08-28T19:16:14.787Z,58.06
2018-08-28T19:18:44.318Z,58.37
2018-08-28T19:21:13.835Z,58.16
2018-08-28T19:23:43.699Z,58.90
2018-08-28T19:26:13.215Z,58.96
2018-08-28T19:28:42.782Z,59.46
2018-08-28T19:31:12.220Z,59.59
2018-08-28T19:33:41.609Z,59.88
2018-08-28T19:36:11.421Z,60.31
2018-08-28T19:38:41.073Z,59.67
2018-08-28T19:41:11.502Z,59.91
2018-08-28T19:43:41.011Z,59.80
2018-08-28T19:46:11.135Z,60.63
2018-08-28T19:48:40.981Z,59.97
2018-08-28T19:51:10.510Z,60.11
2018-08-28T19:53:40.046Z,60.25
2018-08-28T19:56:10.416Z,59.83
2018-08-28T19:58:40.083Z,59.71
2018-08-28T20:01:09.595Z,60.42
2018-08-28T20:03:39.121Z,59.58
2018-08-28T20:06:08.648Z,61.01
2018-08-28T20:08:38.515Z,59.48
2018-08-28T20:11:08.652Z,59.68
2018-08-28T20:13:38.555Z,59.28
2018-08-28T20:16:08.518Z,59.63
2018-08-28T20:18:38.635Z,60.04
2018-08-28T20:21:09.171Z,60.23
2018-08-28T20:23:39.218Z,60.19
2018-08-28T20:26:09.394Z,60.21
2018-08-28T20:28:39.643Z,60.23
2018-08-28T20:31:09.703Z,60.87
2018-08-28T20:33:39.212Z,60.89
2018-08-28T20:36:08.825Z,60.93
2018-08-28T20:38:38.788Z,62.01
2018-08-28T20:41:08.277Z,61.85
2018-08-28T20:43:37.590Z,61.99
2018-08-28T20:46:07.259Z,63.33
2018-08-28T20:48:37.004Z,63.16
2018-08-28T20:51:07.290Z,62.47
2018-08-28T20:53:37.208Z,63.65
2018-08-28T20:56:06.798Z,62.71
2018-08-28T20:58:36.633Z,62.60
2018-08-28T21:01:06.556Z,62.29
2018-08-28T21:03:36.275Z,62.14
2018-08-28T21:06:06.064Z,62.64
2018-08-28T21:08:35.581Z,62.32
2018-08-28T21:11:05.391Z,61.88
2018-08-28T21:13:35.054Z,63.22
2018-08-28T21:16:04.978Z,62.77
2018-08-28T21:18:34.941Z,63.47
2018-08-28T21:21:04.859Z,63.69
2018-08-28T21:23:34.295Z,62.92
2018-08-28T21:26:03.788Z,63.05
2018-08-28T21:28:33.643Z,63.45
2018-08-28T21:31:03.893Z,63.68
2018-08-28T21:33:33.543Z,63.30
2018-08-28T21:36:03.056Z,63.75
2018-08-28T21:38:32.791Z,63.27
2018-08-28T21:41:02.497Z,62.95
2018-08-28T21:43:32.186Z,63.23
2018-08-28T21:46:01.689Z,63.13
2018-08-28T21:48:31.358Z,62.41
2018-08-28T21:51:00.868Z,62.23
2018-08-28T21:53:30.183Z,62.71
2018-08-28T21:55:59.911Z,62.93
2018-08-28T21:58:30.248Z,62.99
2018-08-28T22:01:04.999Z,62.54
2018-08-28T22:03:35.042Z,62.20
2018-08-28T22:06:04.947Z,62.89
2018-08-28T22:08:34.238Z,62.39
2018-08-28T22:11:04.199Z,62.94
2018-08-28T22:13:33.900Z,63.38
2018-08-28T22:16:03.594Z,63.42
2018-08-28T22:18:33.655Z,63.17
2018-08-28T22:21:03.159Z,65.33
2018-08-28T22:23:33.283Z,64.34
2018-08-28T22:26:02.635Z,64.25
2018-08-28T22:28:32.571Z,63.47
2018-08-28T22:31:01.997Z,63.23
2018-08-28T22:33:31.722Z,63.05
2018-08-28T22:36:01.456Z,63.20
2018-08-28T22:38:30.886Z,62.78
2018-08-28T22:41:01.229Z,63.48
2018-08-28T22:43:30.658Z,63.41
2018-08-28T22:46:01.184Z,64.03
2018-08-28T22:48:31.169Z,64.42
2018-08-28T22:51:00.958Z,64.87
2018-08-28T22:53:30.836Z,64.33
2018-08-28T22:56:00.533Z,64.70
2018-08-28T22:58:30.023Z,65.17
2018-08-28T23:00:59.542Z,65.69
2018-08-28T23:03:29.917Z,66.48
2018-08-28T23:05:59.750Z,67.25
2018-08-28T23:08:30.059Z,67.68
2018-08-28T23:11:00.190Z,67.60
2018-08-28T23:13:30.354Z,67.19
2018-08-28T23:16:00.037Z,68.40
2018-08-28T23:18:30.019Z,68.86
2018-08-28T23:20:59.846Z,68.80
2018-08-28T23:23:29.390Z,68.93
2018-08-28T23:25:59.509Z,69.37
2018-08-28T23:28:29.666Z,69.99
2018-08-28T23:30:59.303Z,69.41
2018-08-28T23:33:29.287Z,69.61
2018-08-28T23:35:58.751Z,70.64
2018-08-28T23:38:28.427Z,71.39
2018-08-28T23:40:58.150Z,71.86
2018-08-28T23:43:27.691Z,72.70
2018-08-28T23:45:57.378Z,72.97
2018-08-28T23:48:27.581Z,73.37
2018-08-28T23:50:57.598Z,74.39
2018-08-28T23:53:27.387Z,75.71
2018-08-28T23:55:57.093Z,74.41
2018-08-28T23:58:26.935Z,75.52
